createdAt,value
2019-05-22T06:22:01.879Z,3.52
2019-05-22T06:25:01.912Z,4.17
2019-05-22T06:27:50.122Z,3.77
2019-05-22T06:30:43.296Z,4.10
2019-05-22T06:33:33.348Z,3.35
2019-05-22T06:36:12.965Z,3.70
2019-05-22T06:38:56.116Z,3.10
2019-05-22T06:41:30.972Z,3.62
2019-05-22T06:44:32.389Z,3.12
2019-05-22T06:47:04.689Z,3.87
2019-05-22T06:49:47.018Z,2.50
2019-05-22T06:52:19.091Z,2.95
2019-05-22T06:55:07.692Z,2.95
2019-05-22T06:57:38.353Z,3.37
2019-05-22T07:00:14.657Z,3.00
2019-05-22T07:02:44.446Z,2.83
2019-05-22T07:05:17.329Z,2.90
2019-05-22T07:07:49.472Z,2.52
2019-05-22T07:10:23.571Z,2.65
2019-05-22T07:13:07.536Z,2.35
2019-05-22T07:15:57.697Z,2.37
2019-05-22T07:18:35.494Z,2.42
2019-05-22T07:21:10.277Z,2.35
2019-05-22T07:23:42.023Z,2.60
2019-05-22T07:26:15.183Z,3.15
2019-05-22T07:28:46.058Z,2.80
2019-05-22T07:34:10.164Z,2.20
2019-05-22T07:36:42.747Z,2.52
2019-05-22T07:39:16.667Z,2.80
2019-05-22T07:44:28.413Z,3.83
2019-05-22T07:46:58.741Z,2.52
2019-05-22T07:54:55.644Z,2.17
2019-05-22T07:57:26.118Z,2.25
2019-05-22T08:00:02.734Z,2.65
2019-05-22T08:02:54.256Z,3.22
2019-05-22T08:05:28.968Z,2.80
2019-05-22T08:08:02.191Z,2.58
2019-05-22T08:10:40.631Z,2.15
2019-05-22T08:19:42.031Z,2.20
2019-05-22T08:24:56.977Z,2.02
2019-05-22T08:27:24.715Z,1.70
2019-05-22T08:29:59.215Z,1.85
2019-05-22T08:32:40.713Z,1.65
2019-05-22T08:35:53.874Z,2.22
2019-05-22T08:38:35.351Z,1.70
2019-05-22T08:41:19.427Z,2.25
2019-05-22T08:44:14.655Z,1.90
2019-05-22T08:46:25.378Z,2.10
2019-05-22T08:49:16.110Z,1.90
2019-05-22T08:51:49.719Z,1.77
2019-05-22T08:54:21.716Z,2.08
2019-05-22T08:56:56.567Z,1.40
2019-05-22T08:59:27.186Z,1.40
2019-05-22T09:01:58.830Z,1.35
2019-05-22T09:04:32.689Z,1.52
2019-05-22T09:07:06.070Z,1.32
2019-05-22T09:09:39.668Z,1.35
2019-05-22T09:12:13.674Z,1.62
2019-05-22T09:14:50.193Z,1.65
2019-05-22T09:17:21.259Z,2.12
2019-05-22T09:19:52.061Z,1.77
2019-05-22T09:22:39.418Z,2.05
2019-05-22T09:24:59.909Z,2.30
2019-05-22T09:27:31.274Z,2.30
2019-05-22T09:32:58.301Z,2.60
2019-05-22T09:35:31.989Z,2.35
2019-05-22T09:38:07.846Z,2.72
2019-05-22T09:40:38.830Z,2.67
2019-05-22T09:43:12.828Z,3.00
2019-05-22T09:45:46.679Z,3.12
2019-05-22T09:48:20.279Z,2.85
2019-05-22T09:50:53.223Z,3.50
2019-05-22T09:54:10.138Z,3.02
2019-05-22T09:56:40.918Z,2.85
2019-05-22T09:59:13.693Z,2.90
2019-05-22T10:01:44.793Z,2.98
2019-05-22T10:06:55.036Z,3.37
2019-05-22T10:09:28.277Z,4.58
2019-05-22T10:12:02.939Z,5.12
2019-05-22T10:14:33.384Z,3.20
2019-05-22T10:17:06.109Z,4.30
2019-05-22T10:19:36.886Z,3.25
2019-05-22T10:22:08.573Z,3.30
2019-05-22T10:24:39.584Z,3.75
2019-05-22T10:27:11.630Z,3.37
2019-05-22T10:29:42.807Z,2.80
2019-05-22T10:32:19.869Z,2.67
2019-05-22T10:34:52.618Z,3.10
2019-05-22T10:37:25.196Z,2.98
2019-05-22T10:40:07.300Z,2.85
2019-05-22T10:42:37.874Z,2.87
2019-05-22T10:45:08.869Z,3.20
2019-05-22T10:47:42.127Z,2.45
2019-05-22T10:50:15.612Z,4.00
2019-05-22T10:52:46.541Z,2.80
2019-05-22T10:55:39.837Z,3.17
2019-05-22T10:58:14.213Z,2.87
2019-05-22T11:00:52.682Z,3.00
2019-05-22T11:03:23.324Z,3.05
2019-05-22T11:06:06.555Z,3.02
2019-05-22T11:08:30.311Z,3.33
2019-05-22T11:10:59.723Z,3.80
2019-05-22T11:13:34.014Z,3.50
2019-05-22T11:16:11.627Z,3.70
2019-05-22T11:18:44.679Z,3.30
2019-05-22T11:21:20.888Z,3.62
2019-05-22T11:23:53.320Z,2.83
2019-05-22T11:26:29.082Z,1.57
2019-05-22T11:29:00.037Z,2.20
2019-05-22T11:31:31.436Z,3.20
2019-05-22T11:34:07.630Z,2.08
2019-05-22T11:36:38.325Z,1.90
2019-05-22T11:39:13.997Z,1.20
2019-05-22T11:41:46.628Z,1.15
2019-05-22T11:44:17.758Z,1.20
2019-05-22T11:46:55.415Z,1.27
2019-05-22T11:49:31.580Z,1.30
2019-05-22T11:52:06.455Z,1.20
2019-05-22T11:54:38.184Z,1.20
2019-05-22T11:57:11.035Z,1.35
2019-05-22T11:59:42.083Z,1.60
2019-05-22T12:02:26.143Z,1.50
2019-05-22T12:05:00.355Z,1.45
2019-05-22T12:07:31.660Z,1.95
2019-05-22T12:10:04.423Z,1.60
2019-05-22T12:12:35.618Z,1.50
2019-05-22T12:15:06.714Z,1.98
2019-05-22T12:17:46.053Z,1.98
2019-05-22T12:20:17.958Z,1.82
2019-05-22T12:22:51.097Z,2.10
2019-05-22T12:25:30.639Z,1.92
2019-05-22T12:28:05.954Z,2.00
2019-05-22T12:30:44.260Z,1.95
2019-05-22T12:33:15.300Z,1.70
2019-05-22T12:35:46.839Z,1.90
2019-05-22T12:38:22.755Z,1.90
2019-05-22T12:40:55.865Z,2.02
2019-05-22T12:43:31.803Z,2.20
2019-05-22T12:48:42.709Z,1.60
2019-05-22T12:51:15.267Z,1.92
2019-05-22T12:56:48.907Z,2.08
2019-05-22T13:01:58.098Z,1.90
2019-05-22T13:04:46.808Z,2.45
2019-05-22T13:10:13.728Z,2.47
2019-05-22T13:12:54.033Z,2.50
2019-05-22T13:15:25.951Z,1.60
2019-05-22T13:18:00.305Z,1.87
2019-05-22T13:20:43.311Z,2.25
2019-05-22T13:23:11.738Z,1.92
2019-05-22T13:25:42.472Z,2.72
2019-05-22T13:28:14.044Z,1.75
2019-05-22T13:30:46.947Z,1.82
2019-05-22T13:33:21.364Z,2.10
2019-05-22T13:35:52.330Z,1.70
2019-05-22T13:38:22.793Z,1.90
2019-05-22T13:40:56.350Z,2.20
2019-05-22T13:43:28.762Z,2.15
2019-05-22T13:45:59.442Z,2.55
2019-05-22T13:48:30.367Z,2.05
2019-05-22T13:51:00.819Z,1.98
2019-05-22T13:53:32.050Z,2.20
2019-05-22T13:56:02.901Z,2.00
2019-05-22T13:58:33.686Z,1.80
2019-05-22T14:01:04.320Z,2.30
2019-05-22T14:03:34.778Z,1.57
2019-05-22T14:06:05.747Z,1.90
2019-05-22T14:08:36.524Z,1.35
2019-05-22T14:11:06.998Z,1.70
2019-05-22T14:13:37.913Z,1.75
2019-05-22T14:16:08.907Z,1.75
2019-05-22T14:18:39.473Z,1.60
2019-05-22T14:21:22.109Z,1.82
2019-05-22T14:23:52.601Z,1.57
2019-05-22T14:26:23.035Z,1.77
2019-05-22T14:28:53.707Z,2.25
2019-05-22T14:31:24.236Z,1.60
2019-05-22T14:33:55.076Z,1.90
2019-05-22T14:36:25.665Z,1.52
2019-05-22T14:38:57.215Z,2.05
2019-05-22T14:41:28.161Z,1.75
2019-05-22T14:43:58.576Z,1.37
2019-05-22T14:46:29.325Z,1.40
2019-05-22T14:48:59.981Z,1.90
2019-05-22T14:51:31.182Z,1.70
2019-05-22T14:54:01.893Z,1.50
2019-05-22T14:56:32.792Z,1.50
2019-05-22T14:59:04.244Z,1.52
2019-05-22T15:01:34.881Z,1.52
2019-05-22T15:04:05.425Z,1.25
2019-05-22T15:06:36.459Z,1.20
2019-05-22T15:09:08.253Z,1.60
2019-05-22T15:11:39.915Z,1.40
2019-05-22T15:14:10.376Z,1.45
2019-05-22T15:16:40.921Z,1.40
2019-05-22T15:19:11.320Z,1.20
2019-05-22T15:21:41.761Z,1.27
2019-05-22T15:24:13.275Z,1.32
2019-05-22T15:26:43.675Z,1.20
2019-05-22T15:29:14.119Z,1.32
2019-05-22T15:31:44.859Z,1.10
2019-05-22T15:34:15.418Z,1.37
2019-05-22T15:36:46.013Z,1.05
2019-05-22T15:39:17.716Z,1.20
2019-05-22T15:41:49.468Z,1.02
2019-05-22T15:44:21.439Z,1.22
2019-05-22T15:46:51.973Z,1.12
2019-05-22T15:49:22.832Z,1.10
2019-05-22T15:51:53.366Z,1.15
2019-05-22T15:54:24.055Z,0.98
2019-05-22T15:56:54.942Z,1.20
2019-05-22T15:59:25.716Z,1.02
2019-05-22T16:01:56.393Z,1.25
2019-05-22T16:04:26.741Z,1.20
2019-05-22T16:06:57.835Z,1.00
2019-05-22T16:09:28.226Z,0.93
2019-05-22T16:12:10.457Z,1.10
2019-05-22T16:14:41.643Z,1.10
2019-05-22T16:17:12.067Z,1.30
2019-05-22T16:19:43.596Z,1.20
2019-05-22T16:22:13.980Z,1.20
2019-05-22T16:25:03.628Z,1.10
2019-05-22T16:27:34.462Z,2.05
2019-05-22T16:30:05.723Z,1.10
2019-05-22T16:32:36.143Z,1.02
2019-05-22T16:35:18.548Z,1.20
2019-05-22T16:37:48.919Z,1.10
2019-05-22T16:40:19.681Z,1.25
2019-05-22T16:42:50.062Z,1.10
2019-05-22T16:45:20.486Z,1.40
2019-05-22T16:47:50.946Z,1.15
2019-05-22T16:50:21.896Z,1.25
2019-05-22T16:52:52.225Z,1.30
2019-05-22T16:55:22.595Z,1.62
2019-05-22T16:57:54.411Z,1.22
2019-05-22T17:00:27.236Z,1.20
2019-05-22T17:02:57.800Z,1.60
2019-05-22T17:05:28.431Z,1.20
2019-05-22T17:07:59.930Z,1.10
2019-05-22T17:10:30.428Z,1.30
2019-05-22T17:13:00.960Z,1.17
2019-05-22T17:15:31.769Z,1.27
2019-05-22T17:18:02.425Z,1.00
2019-05-22T17:20:33.959Z,1.20
2019-05-22T17:23:04.491Z,1.10
2019-05-22T17:25:34.828Z,1.00
2019-05-22T17:28:05.294Z,1.10
2019-05-22T17:30:37.154Z,1.00
2019-05-22T17:33:08.502Z,1.10
2019-05-22T17:35:39.425Z,1.00
2019-05-22T17:38:10.015Z,1.00
2019-05-22T17:40:40.492Z,1.27
2019-05-22T17:43:12.162Z,1.20
2019-05-22T17:45:43.918Z,0.90
2019-05-22T17:48:15.289Z,1.10
2019-05-22T17:50:45.960Z,1.12
2019-05-22T17:53:17.924Z,1.30
2019-05-22T17:55:48.939Z,1.42
2019-05-22T17:58:24.352Z,1.30
2019-05-22T18:00:53.387Z,1.60
2019-05-22T18:03:23.952Z,1.17
2019-05-22T18:05:55.148Z,1.12
2019-05-22T18:08:26.344Z,1.27
2019-05-22T18:11:16.290Z,1.72
2019-05-22T18:14:00.867Z,1.47
2019-05-22T18:16:32.732Z,1.60
2019-05-22T18:19:03.227Z,1.60
2019-05-22T18:21:33.944Z,1.62
2019-05-22T18:24:04.942Z,1.90
2019-05-22T18:26:35.341Z,1.50
2019-05-22T18:29:05.789Z,1.80
2019-05-22T18:31:36.406Z,1.55
2019-05-22T18:34:06.847Z,1.75
2019-05-22T18:36:37.243Z,1.60
2019-05-22T18:39:10.376Z,1.70
2019-05-22T18:41:40.832Z,1.50
2019-05-22T18:44:11.333Z,1.72
2019-05-22T18:46:41.854Z,1.62
2019-05-22T18:49:12.405Z,1.35
2019-05-22T18:51:43.735Z,1.50
2019-05-22T18:54:14.172Z,1.20
2019-05-22T18:56:45.809Z,1.37
2019-05-22T18:59:16.237Z,1.50
2019-05-22T19:01:46.790Z,1.47
2019-05-22T19:04:17.244Z,1.40
2019-05-22T19:06:47.587Z,1.50
2019-05-22T19:09:18.028Z,1.60
2019-05-22T19:11:48.529Z,1.27
2019-05-22T19:14:19.307Z,1.20
2019-05-22T19:16:49.594Z,1.42
2019-05-22T19:19:20.130Z,1.55
2019-05-22T19:21:50.451Z,1.27
2019-05-22T19:24:32.348Z,1.50
2019-05-22T19:27:02.720Z,1.45
2019-05-22T19:29:33.272Z,1.30
2019-05-22T19:32:04.775Z,1.20
2019-05-22T19:34:35.424Z,1.45
2019-05-22T19:37:05.833Z,1.60
2019-05-22T19:39:37.437Z,1.40
2019-05-22T19:42:08.889Z,1.60
2019-05-22T19:44:40.005Z,1.50
2019-05-22T19:47:10.354Z,1.50
2019-05-22T19:49:43.750Z,1.55
2019-05-22T19:52:14.415Z,1.30
2019-05-22T19:54:46.165Z,1.45
2019-05-22T19:57:17.345Z,1.70
2019-05-22T19:59:48.300Z,1.45
2019-05-22T20:02:18.574Z,1.70
2019-05-22T20:04:49.275Z,1.55
2019-05-22T20:07:20.068Z,1.60
2019-05-22T20:09:51.031Z,1.50
2019-05-22T20:12:24.874Z,1.60
2019-05-22T20:14:54.265Z,1.50
2019-05-22T20:17:24.798Z,1.80
2019-05-22T20:19:56.469Z,1.50
2019-05-22T20:22:27.423Z,1.67
2019-05-22T20:24:58.033Z,1.40
2019-05-22T20:27:28.455Z,1.62
2019-05-22T20:29:58.983Z,1.37
2019-05-22T20:32:29.760Z,2.00
2019-05-22T20:35:00.741Z,1.35
2019-05-22T20:37:32.417Z,1.52
2019-05-22T20:40:04.096Z,1.60
2019-05-22T20:42:35.127Z,1.40
2019-05-22T20:45:06.455Z,1.70
2019-05-22T20:47:38.692Z,1.52
2019-05-22T20:50:10.055Z,1.55
2019-05-22T20:52:40.967Z,1.95
2019-05-22T20:55:12.972Z,1.90
2019-05-22T20:57:43.817Z,1.95
2019-05-22T21:00:16.720Z,1.95
2019-05-22T21:02:48.645Z,1.80
2019-05-22T21:05:19.932Z,2.12
2019-05-22T21:07:51.879Z,1.80
2019-05-22T21:10:24.561Z,1.90
2019-05-22T21:12:55.775Z,1.50
2019-05-22T21:15:29.607Z,1.80
2019-05-22T21:18:00.428Z,1.42
2019-05-22T21:20:31.936Z,2.00
2019-05-22T21:23:02.937Z,1.40
2019-05-22T21:25:33.448Z,1.65
2019-05-22T21:28:04.392Z,1.77
2019-05-22T21:30:35.316Z,1.80
2019-05-22T21:33:06.111Z,1.55
2019-05-22T21:35:36.534Z,1.80
2019-05-22T21:38:19.558Z,1.90
2019-05-22T21:40:51.172Z,1.87
2019-05-22T21:43:21.676Z,1.77
2019-05-22T21:45:53.194Z,1.80
2019-05-22T21:48:23.784Z,1.80
2019-05-22T21:50:54.216Z,1.82
2019-05-22T21:53:24.749Z,1.98
2019-05-22T21:56:04.455Z,1.80
2019-05-22T21:58:28.071Z,1.90
2019-05-22T22:01:26.582Z,2.22
2019-05-22T22:04:05.655Z,1.90
2019-05-22T22:06:36.256Z,1.57
2019-05-22T22:09:09.047Z,2.00
2019-05-22T22:11:39.547Z,1.57
2019-05-22T22:14:10.025Z,1.75
2019-05-22T22:16:41.320Z,1.75
2019-05-22T22:19:12.709Z,2.05
2019-05-22T22:21:43.363Z,1.90
2019-05-22T22:24:13.811Z,1.80
2019-05-22T22:26:44.487Z,1.55
2019-05-22T22:29:15.121Z,1.80
2019-05-22T22:31:45.959Z,1.75
2019-05-22T22:34:22.664Z,1.72
2019-05-22T22:36:53.608Z,2.05
2019-05-22T22:39:25.830Z,1.87
2019-05-22T22:42:00.439Z,2.00
2019-05-22T22:44:32.715Z,1.98
2019-05-22T22:47:13.903Z,1.60
2019-05-22T22:49:44.396Z,2.15
2019-05-22T22:52:15.167Z,1.92
2019-05-22T22:54:45.529Z,1.90
2019-05-22T22:57:15.895Z,2.00
2019-05-22T22:59:46.822Z,2.10
2019-05-22T23:02:17.860Z,1.85
2019-05-22T23:04:48.733Z,1.70
2019-05-22T23:07:19.614Z,2.08
2019-05-22T23:09:50.009Z,2.30
2019-05-22T23:12:21.357Z,2.00
2019-05-22T23:14:53.941Z,2.00
2019-05-22T23:17:26.131Z,1.98
2019-05-22T23:19:54.981Z,2.30
2019-05-22T23:22:27.191Z,2.10
2019-05-22T23:24:59.679Z,1.82
2019-05-22T23:27:31.618Z,2.12
2019-05-22T23:30:03.025Z,2.00
2019-05-22T23:32:33.488Z,2.40
2019-05-22T23:35:05.338Z,2.15
2019-05-22T23:37:36.179Z,2.10
2019-05-22T23:40:07.002Z,1.87
2019-05-22T23:42:39.340Z,2.20
2019-05-22T23:45:12.924Z,2.22
2019-05-22T23:47:54.515Z,2.40
2019-05-22T23:50:25.347Z,2.02
2019-05-22T23:52:56.976Z,1.90
2019-05-22T23:55:27.734Z,2.08
2019-05-22T23:57:58.525Z,2.20
